Time;durP1;ratioP1;P1;durP2;ratioP2;P2;SDS_P1;SDS_P2;PMS_P1;PMS_P2;Temp;Humidity;BMP_temperature;BMP_pressure;BME280_temperature;BME280_humidity;BME280_pressure;Samples;Min_cycle;Max_cycle;Signal;HPM_P1;HPM_P2
2023/03/20 00:02:18;;;;;;;9.13;4.40;;;7.40;99.90;;;;;;4934993;28;20057;-82
2023/03/20 00:04:44;;;;;;;9.13;4.80;;;7.40;99.90;;;;;;4935953;28;20046;-82
2023/03/20 00:07:11;;;;;;;10.27;4.53;;;7.50;99.90;;;;;;4950166;28;20101;-82
2023/03/20 00:09:37;;;;;;;11.82;4.57;;;7.40;99.90;;;;;;4952449;28;20049;-82
2023/03/20 00:12:04;;;;;;;9.18;5.15;;;7.70;99.90;;;;;;4956630;28;20088;-82
2023/03/20 00:14:30;;;;;;;10.60;5.60;;;7.40;99.90;;;;;;4954422;28;20129;-82
2023/03/20 00:16:56;;;;;;;12.45;5.72;;;7.40;99.90;;;;;;4971353;28;20141;-82
2023/03/20 00:19:25;;;;;;;11.85;5.65;;;7.40;99.90;;;;;;4954766;28;20138;-82
2023/03/20 00:21:53;;;;;;;11.43;5.55;;;7.40;99.90;;;;;;4969445;28;20053;-82
2023/03/20 00:24:19;;;;;;;18.73;5.60;;;7.40;99.90;;;;;;4971089;28;20046;-82
2023/03/20 00:26:46;;;;;;;12.75;5.38;;;7.30;99.90;;;;;;4971254;28;20082;-82
2023/03/20 00:29:18;;;;;;;10.10;5.57;;;7.30;99.90;;;;;;4970601;28;20049;-82
2023/03/20 00:31:43;;;;;;;8.32;5.00;;;7.30;99.90;;;;;;4954942;28;20058;-82
2023/03/20 00:34:13;;;;;;;11.98;5.40;;;7.30;99.90;;;;;;4971081;28;20048;-82
2023/03/20 00:36:39;;;;;;;12.30;5.38;;;7.40;99.90;;;;;;4969704;28;20046;-82
2023/03/20 00:39:05;;;;;;;11.23;5.70;;;7.20;99.90;;;;;;4954914;28;20050;-82
2023/03/20 00:41:31;;;;;;;7.88;4.75;;;7.20;99.90;;;;;;4970732;28;20129;-82
2023/03/20 00:44:02;;;;;;;11.57;5.55;;;7.20;99.90;;;;;;4970456;28;20157;-82
2023/03/20 00:46:32;;;;;;;12.50;5.05;;;7.20;99.90;;;;;;4954206;28;20057;-81
2023/03/20 00:48:58;;;;;;;9.98;4.60;;;7.20;99.90;;;;;;4973231;28;20050;-82
2023/03/20 00:51:23;;;;;;;11.43;4.78;;;7.20;99.90;;;;;;4956497;28;20050;-82
2023/03/20 00:53:49;;;;;;;9.45;4.78;;;7.20;99.90;;;;;;4958590;28;20081;-82
2023/03/20 00:56:28;;;;;;;10.35;4.40;;;7.30;99.90;;;;;;4974297;28;20084;-82
2023/03/20 00:58:54;;;;;;;12.77;5.10;;;7.60;99.90;;;;;;4958570;28;20079;-82
2023/03/20 01:01:19;;;;;;;12.05;4.68;;;7.20;99.90;;;;;;4973816;28;20097;-82
2023/03/20 01:03:45;;;;;;;7.95;4.53;;;7.20;99.90;;;;;;4957867;28;20046;-82
2023/03/20 01:06:12;;;;;;;8.77;4.60;;;7.20;99.90;;;;;;4972937;28;20498;-82
2023/03/20 01:08:37;;;;;;;11.27;4.57;;;7.20;99.90;;;;;;4958274;28;20089;-82
2023/03/20 01:11:03;;;;;;;9.07;4.80;;;7.10;99.90;;;;;;4957126;28;20089;-82
2023/03/20 01:13:30;;;;;;;10.75;4.53;;;7.20;99.90;;;;;;4957851;28;20057;-81
2023/03/20 01:15:57;;;;;;;8.98;4.03;;;7.20;99.90;;;;;;4954628;28;20573;-81
2023/03/20 01:18:25;;;;;;;9.88;4.70;;;7.20;99.90;;;;;;4938245;28;20173;-82
2023/03/20 01:20:52;;;;;;;9.52;4.70;;;7.10;99.90;;;;;;4953687;28;20129;-82
2023/03/20 01:23:21;;;;;;;12.63;4.93;;;7.10;99.90;;;;;;4954219;28;20058;-82
2023/03/20 01:25:47;;;;;;;15.07;4.90;;;7.10;99.90;;;;;;4953864;28;20129;-82
2023/03/20 01:28:18;;;;;;;10.68;4.80;;;7.10;99.90;;;;;;4938724;28;20090;-82
2023/03/20 01:30:44;;;;;;;15.18;5.38;;;7.10;99.90;;;;;;4938331;28;20411;-81
2023/03/20 01:33:20;;;;;;;12.07;4.97;;;7.10;99.90;;;;;;4953633;28;20387;-81
2023/03/20 01:35:48;;;;;;;14.65;5.05;;;7.10;99.90;;;;;;4937576;28;20462;-82
2023/03/20 01:38:20;;;;;;;12.10;4.95;;;7.10;99.90;;;;;;4954045;28;20097;-82
2023/03/20 01:40:58;;;;;;;11.07;5.05;;;7.10;99.90;;;;;;4953402;28;20402;-82
2023/03/20 01:43:26;;;;;;;12.40;4.95;;;7.10;99.90;;;;;;4938497;28;20059;-82
2023/03/20 01:46:01;;;;;;;13.32;5.45;;;7.20;99.90;;;;;;4937022;28;20058;-82
2023/03/20 01:48:54;;;;;;;12.25;5.05;;;7.10;99.90;;;;;;4938761;28;20047;-82
2023/03/20 01:51:22;;;;;;;14.85;6.00;;;7.10;99.90;;;;;;4953000;28;20043;-82
2023/03/20 01:53:56;;;;;;;17.75;6.57;;;7.10;99.90;;;;;;4971125;28;20061;-82
2023/03/20 01:56:22;;;;;;;13.10;6.63;;;7.10;99.90;;;;;;4954027;28;20058;-82
2023/03/20 01:58:55;;;;;;;16.33;5.90;;;7.10;99.90;;;;;;4954023;28;20054;-82
2023/03/20 02:01:23;;;;;;;13.77;5.82;;;7.10;99.90;;;;;;4937373;28;20055;-82
2023/03/20 02:03:49;;;;;;;14.70;6.40;;;7.20;99.90;;;;;;4953529;28;20467;-81
2023/03/20 02:06:15;;;;;;;15.60;7.85;;;7.20;99.90;;;;;;4953010;28;20058;-81
2023/03/20 02:08:47;;;;;;;17.60;9.63;;;7.10;99.90;;;;;;4937184;28;20129;-82
2023/03/20 02:11:14;;;;;;;23.60;13.18;;;7.20;99.90;;;;;;4953523;28;20054;-82
2023/03/20 02:13:39;;;;;;;29.77;15.20;;;7.10;99.90;;;;;;4937597;28;20047;-81
2023/03/20 02:16:06;;;;;;;26.13;16.77;;;7.20;99.90;;;;;;4969004;28;20051;-82
2023/03/20 02:18:33;;;;;;;26.85;13.23;;;7.10;99.90;;;;;;4969930;28;20042;-82
2023/03/20 02:21:15;;;;;;;23.08;12.15;;;7.20;99.90;;;;;;4951657;28;20081;-82
2023/03/20 02:24:22;;;;;;;23.35;11.05;;;7.10;99.90;;;;;;4953109;28;20057;-81
2023/03/20 02:26:50;;;;;;;22.13;12.55;;;7.20;99.90;;;;;;4968949;28;20319;-82
2023/03/20 02:29:58;;;;;;;26.77;15.23;;;7.10;99.90;;;;;;4937093;28;20072;-81
2023/03/20 02:32:25;;;;;;;22.88;13.88;;;7.20;99.90;;;;;;4953481;28;20046;-81
2023/03/20 02:35:15;;;;;;;26.45;16.50;;;7.20;99.90;;;;;;4952007;28;20043;-81
2023/03/20 02:37:50;;;;;;;34.97;14.25;;;7.20;99.90;;;;;;4937181;28;20089;-82
2023/03/20 02:40:21;;;;;;;32.35;14.75;;;7.10;99.90;;;;;;4953067;28;20461;-80
2023/03/20 02:43:02;;;;;;;35.08;17.85;;;7.20;99.90;;;;;;4936252;28;20082;-81
2023/03/20 02:45:32;;;;;;;31.95;16.45;;;7.20;99.90;;;;;;4953087;28;20090;-81
2023/03/20 02:48:07;;;;;;;33.22;18.52;;;7.20;99.90;;;;;;4953201;28;20634;-81
2023/03/20 02:50:42;;;;;;;36.85;17.30;;;7.20;99.90;;;;;;4935594;28;20494;-81
2023/03/20 02:53:24;;;;;;;38.53;16.25;;;7.30;99.90;;;;;;4936976;28;20050;-82
2023/03/20 02:56:05;;;;;;;33.20;16.63;;;7.20;99.90;;;;;;4937068;28;20381;-81
2023/03/20 02:58:45;;;;;;;33.38;16.08;;;7.20;99.90;;;;;;4937176;28;20057;-82
2023/03/20 03:01:15;;;;;;;30.27;15.52;;;7.20;99.90;;;;;;4952818;28;20450;-82
2023/03/20 03:03:53;;;;;;;26.88;12.45;;;7.20;99.90;;;;;;4951617;28;20518;-82
2023/03/20 03:06:23;;;;;;;27.02;11.15;;;7.30;99.90;;;;;;4935754;28;20047;-81
2023/03/20 03:08:54;;;;;;;20.30;10.13;;;7.30;99.90;;;;;;4952892;28;20129;-82
2023/03/20 03:11:20;;;;;;;25.10;9.82;;;7.30;99.90;;;;;;4934847;28;20542;-82
2023/03/20 03:13:52;;;;;;;24.08;8.77;;;7.30;99.90;;;;;;4952052;28;20057;-81
2023/03/20 03:16:25;;;;;;;20.92;10.73;;;7.30;99.90;;;;;;4936352;28;20380;-81
2023/03/20 03:19:06;;;;;;;27.92;13.63;;;7.30;99.90;;;;;;4951822;28;20133;-82
2023/03/20 03:21:34;;;;;;;24.42;14.77;;;7.30;99.90;;;;;;4935800;28;20089;-81
2023/03/20 03:24:01;;;;;;;28.77;18.15;;;7.30;99.90;;;;;;4936131;28;20043;-81
2023/03/20 03:26:32;;;;;;;27.10;14.10;;;7.30;99.90;;;;;;4936767;28;20191;-82
2023/03/20 03:29:03;;;;;;;30.92;14.80;;;7.30;99.90;;;;;;4936288;28;20039;-82
2023/03/20 03:31:31;;;;;;;28.98;14.70;;;7.30;99.90;;;;;;4935733;28;20039;-82
2023/03/20 03:33:59;;;;;;;31.40;16.48;;;7.40;99.90;;;;;;4936188;28;20059;-81
2023/03/20 03:36:38;;;;;;;30.13;15.73;;;7.30;99.90;;;;;;4967419;28;20113;-82
2023/03/20 03:39:06;;;;;;;30.58;14.90;;;7.30;99.90;;;;;;4951402;28;20499;-82
2023/03/20 03:41:36;;;;;;;27.67;14.02;;;7.30;99.90;;;;;;4951490;28;20054;-82
2023/03/20 03:44:10;;;;;;;31.52;15.02;;;7.30;99.90;;;;;;4936104;28;20058;-82
2023/03/20 03:46:44;;;;;;;29.60;14.43;;;7.30;99.90;;;;;;4935049;28;20054;-82
2023/03/20 03:49:15;;;;;;;24.05;13.23;;;7.40;99.90;;;;;;4935918;28;20049;-82
2023/03/20 03:51:45;;;;;;;28.05;15.55;;;7.40;99.90;;;;;;4951269;28;20043;-82
2023/03/20 03:54:18;;;;;;;24.90;13.75;;;7.30;99.90;;;;;;4950818;28;20045;-81
2023/03/20 03:56:44;;;;;;;;;;;7.40;99.90;;;;;;4952240;28;20050;-82
2023/03/20 03:59:19;;;;;;;27.67;14.23;;;7.30;99.90;;;;;;4951455;28;19928;-82
2023/03/20 04:01:46;;;;;;;26.08;15.13;;;7.30;99.90;;;;;;4935107;28;20130;-82
2023/03/20 04:04:15;;;;;;;24.00;12.95;;;7.40;99.90;;;;;;4952029;28;20034;-81
2023/03/20 04:06:41;;;;;;;25.50;12.38;;;7.30;99.90;;;;;;4934029;28;20055;-81
2023/03/20 04:09:07;;;;;;;25.50;11.40;;;7.40;99.90;;;;;;4935918;28;20054;-82
2023/03/20 04:11:34;;;;;;;25.33;11.32;;;7.40;99.90;;;;;;4935659;28;20090;-82
2023/03/20 04:14:00;;;;;;;23.55;10.93;;;7.40;99.90;;;;;;4951041;28;20057;-82
2023/03/20 04:16:26;;;;;;;21.35;9.85;;;7.40;99.90;;;;;;4936322;28;20055;-82
2023/03/20 04:18:52;;;;;;;21.15;10.35;;;7.30;99.90;;;;;;4951254;28;20057;-82
2023/03/20 04:21:18;;;;;;;21.67;10.80;;;7.40;99.90;;;;;;4934365;28;20141;-82
2023/03/20 04:23:44;;;;;;;24.95;12.57;;;7.40;99.90;;;;;;4937576;28;20051;-82
2023/03/20 04:26:10;;;;;;;19.17;11.80;;;7.30;99.90;;;;;;4954668;28;20042;-82
2023/03/20 04:28:36;;;;;;;22.50;11.73;;;7.40;99.90;;;;;;4939331;28;20062;-82
2023/03/20 04:31:03;;;;;;;23.63;13.43;;;7.40;99.90;;;;;;4939382;28;20054;-82
2023/03/20 04:33:28;;;;;;;22.30;12.10;;;7.40;99.90;;;;;;4972069;28;20086;-82
2023/03/20 04:35:55;;;;;;;23.70;10.60;;;7.40;99.90;;;;;;4954250;28;20050;-81
2023/03/20 04:38:22;;;;;;;21.35;11.05;;;7.40;99.90;;;;;;4955812;28;20510;-82
2023/03/20 04:40:47;;;;;;;20.00;9.52;;;7.40;99.90;;;;;;4955285;28;20146;-82
2023/03/20 04:43:13;;;;;;;19.20;9.73;;;7.40;99.90;;;;;;4938261;28;20134;-82
2023/03/20 04:45:40;;;;;;;18.83;9.38;;;7.60;99.90;;;;;;4954907;28;20051;-82
2023/03/20 04:48:06;;;;;;;15.95;8.27;;;7.30;99.90;;;;;;4939300;28;20065;-82
2023/03/20 04:50:32;;;;;;;19.35;9.13;;;7.40;99.90;;;;;;4937904;28;20383;-82
2023/03/20 04:52:58;;;;;;;23.63;9.80;;;7.40;99.90;;;;;;4971980;28;20050;-81
2023/03/20 04:55:24;;;;;;;17.20;8.57;;;7.50;99.90;;;;;;4954451;28;20387;-81
2023/03/20 04:57:50;;;;;;;17.27;9.43;;;7.40;99.90;;;;;;4970742;28;20311;-81
2023/03/20 05:00:17;;;;;;;21.17;10.30;;;7.30;99.90;;;;;;4970667;28;20126;-82
2023/03/20 05:02:43;;;;;;;19.38;10.20;;;7.40;99.90;;;;;;4954366;28;20053;-82
2023/03/20 05:05:09;;;;;;;18.42;9.43;;;7.40;99.90;;;;;;4938199;28;20116;-81
2023/03/20 05:07:35;;;;;;;18.67;10.25;;;7.60;99.90;;;;;;4954829;28;20058;-82
2023/03/20 05:10:03;;;;;;;21.55;9.70;;;7.30;99.90;;;;;;4970109;28;20058;-82
2023/03/20 05:12:29;;;;;;;16.92;9.63;;;7.40;99.90;;;;;;4954479;28;20050;-82
2023/03/20 05:14:54;;;;;;;17.40;9.40;;;7.40;99.90;;;;;;4938538;28;20042;-82
2023/03/20 05:17:21;;;;;;;17.75;8.93;;;7.30;99.90;;;;;;4954079;28;20038;-82
2023/03/20 05:19:48;;;;;;;17.80;8.43;;;7.40;99.90;;;;;;4938966;28;20054;-82
2023/03/20 05:22:15;;;;;;;15.93;8.25;;;7.40;99.90;;;;;;4969360;28;20054;-82
2023/03/20 05:24:41;;;;;;;20.77;9.20;;;7.40;99.90;;;;;;4956849;28;20082;-81
2023/03/20 05:27:06;;;;;;;24.33;10.07;;;7.40;99.90;;;;;;4957219;28;20050;-81
2023/03/20 05:29:32;;;;;;;17.35;9.60;;;7.40;99.90;;;;;;4973647;28;20042;-81
2023/03/20 05:31:58;;;;;;;16.15;8.45;;;7.40;99.90;;;;;;4973322;28;20076;-81
2023/03/20 05:34:23;;;;;;;17.95;8.43;;;7.40;99.90;;;;;;4957577;28;20414;-82
2023/03/20 05:36:49;;;;;;;19.60;8.93;;;7.40;99.90;;;;;;4956207;28;20089;-82
2023/03/20 05:39:15;;;;;;;18.80;8.45;;;7.40;99.90;;;;;;4973034;28;20043;-82
2023/03/20 05:41:40;;;;;;;17.52;9.23;;;7.40;99.90;;;;;;4957180;28;20042;-82
2023/03/20 05:44:06;;;;;;;17.70;8.77;;;7.40;99.90;;;;;;4973517;28;20129;-81
2023/03/20 05:46:57;;;;;;;16.63;8.85;;;7.40;99.90;;;;;;4976479;28;20060;-81
2023/03/20 05:49:22;;;;;;;17.52;8.32;;;7.40;99.90;;;;;;4973069;28;20145;-81
2023/03/20 05:51:48;;;;;;;17.40;8.68;;;7.40;99.90;;;;;;4955841;28;20050;-81
2023/03/20 05:54:14;;;;;;;19.88;9.05;;;7.40;99.90;;;;;;4957546;28;20576;-82
2023/03/20 05:56:42;;;;;;;17.17;9.13;;;7.40;99.90;;;;;;4973321;28;20113;-82
2023/03/20 05:59:11;;;;;;;17.77;9.57;;;7.40;99.90;;;;;;4972533;28;20038;-82
2023/03/20 06:01:36;;;;;;;17.45;9.07;;;7.40;99.90;;;;;;4956927;28;20085;-82
2023/03/20 06:04:02;;;;;;;18.45;8.77;;;7.40;99.90;;;;;;4957291;28;20529;-82
2023/03/20 06:06:28;;;;;;;20.23;8.90;;;7.40;99.90;;;;;;4955298;28;20096;-82
2023/03/20 06:08:54;;;;;;;15.30;8.70;;;7.40;99.90;;;;;;4957267;28;20054;-82
2023/03/20 06:11:20;;;;;;;25.92;8.45;;;7.40;99.90;;;;;;4972909;28;20494;-81
2023/03/20 06:13:45;;;;;;;16.48;8.70;;;7.40;99.90;;;;;;4953584;28;20046;-82
2023/03/20 06:16:11;;;;;;;16.65;8.63;;;7.40;99.90;;;;;;4953396;28;20050;-82
2023/03/20 06:18:38;;;;;;;18.25;8.93;;;7.40;99.90;;;;;;4937410;28;20043;-81
2023/03/20 06:21:04;;;;;;;19.80;9.05;;;7.40;99.90;;;;;;4952065;28;20526;-81
2023/03/20 06:23:30;;;;;;;21.08;9.57;;;7.40;99.90;;;;;;4953753;28;20042;-81
2023/03/20 06:25:56;;;;;;;20.02;8.45;;;7.40;99.90;;;;;;4952246;28;20046;-81
2023/03/20 06:28:21;;;;;;;19.52;9.23;;;7.40;99.90;;;;;;4936653;28;20047;-81
2023/03/20 06:30:52;;;;;;;19.42;9.80;;;7.40;99.90;;;;;;4952475;28;20046;-82
2023/03/20 06:33:17;;;;;;;19.42;11.02;;;7.50;99.90;;;;;;4937903;28;20038;-82
2023/03/20 06:35:45;;;;;;;16.83;9.20;;;7.50;99.90;;;;;;4951130;28;20399;-82
2023/03/20 06:38:10;;;;;;;24.08;10.35;;;7.50;99.90;;;;;;4953246;28;20051;-81
2023/03/20 06:40:36;;;;;;;19.90;10.45;;;7.50;99.90;;;;;;4969268;28;20049;-82
2023/03/20 06:43:02;;;;;;;18.45;10.32;;;7.50;99.90;;;;;;4968150;28;20108;-81
2023/03/20 06:45:28;;;;;;;16.20;9.43;;;7.60;99.90;;;;;;4970007;28;20438;-81
2023/03/20 06:47:53;;;;;;;19.60;9.82;;;7.60;99.90;;;;;;4952633;28;20529;-81
2023/03/20 06:50:19;;;;;;;17.95;10.77;;;7.60;99.90;;;;;;4951609;28;20051;-82
2023/03/20 06:52:45;;;;;;;17.45;9.07;;;7.60;99.90;;;;;;4953094;28;20461;-81
2023/03/20 06:55:11;;;;;;;15.75;9.20;;;7.60;99.90;;;;;;4935448;28;20058;-81
2023/03/20 06:57:37;;;;;;;18.75;8.63;;;7.90;99.90;;;;;;4968868;28;20038;-81
2023/03/20 07:00:04;;;;;;;19.27;8.43;;;7.80;99.90;;;;;;4952272;28;20046;-81
2023/03/20 07:02:30;;;;;;;18.60;10.45;;;7.60;99.90;;;;;;4952396;28;20061;-81
2023/03/20 07:04:56;;;;;;;24.17;9.38;;;7.70;99.90;;;;;;4952244;28;20510;-81
2023/03/20 07:07:22;;;;;;;18.88;9.32;;;7.70;99.90;;;;;;4968575;28;20086;-82
2023/03/20 07:09:48;;;;;;;19.73;9.00;;;7.80;99.90;;;;;;4967965;28;20057;-82
2023/03/20 07:12:15;;;;;;;20.27;10.40;;;7.80;99.90;;;;;;4942512;28;20185;-81
2023/03/20 07:14:42;;;;;;;23.05;11.70;;;7.80;99.90;;;;;;4971863;28;20494;-82
2023/03/20 07:17:08;;;;;;;20.60;10.07;;;7.90;99.90;;;;;;4954850;28;20048;-81
2023/03/20 07:19:35;;;;;;;21.30;10.30;;;7.90;99.90;;;;;;4972395;28;20511;-82
2023/03/20 07:22:04;;;;;;;19.48;9.70;;;8.00;99.90;;;;;;4971010;28;20057;-82
2023/03/20 07:24:31;;;;;;;19.25;10.23;;;8.00;99.90;;;;;;4955193;28;20619;-82
2023/03/20 07:26:57;;;;;;;20.98;10.57;;;8.00;99.90;;;;;;4955865;28;20053;-82
2023/03/20 07:29:23;;;;;;;17.42;10.27;;;8.10;99.90;;;;;;4955178;28;20054;-82
2023/03/20 07:31:49;;;;;;;20.00;10.48;;;8.20;99.90;;;;;;4970745;28;20038;-82
2023/03/20 07:34:15;;;;;;;20.58;10.32;;;8.20;99.90;;;;;;4955229;28;20048;-81
2023/03/20 07:36:41;;;;;;;17.50;10.30;;;8.30;99.90;;;;;;4971084;28;20046;-82
2023/03/20 07:39:07;;;;;;;22.13;10.45;;;8.40;99.90;;;;;;4970956;28;20092;-82
2023/03/20 07:41:33;;;;;;;18.13;9.75;;;8.50;99.90;;;;;;4955085;28;20050;-81
2023/03/20 07:43:59;;;;;;;18.98;10.25;;;8.60;99.90;;;;;;4971658;28;20551;-82
2023/03/20 07:46:25;;;;;;;19.08;10.48;;;8.60;99.90;;;;;;4969840;28;20085;-81
2023/03/20 07:48:51;;;;;;;20.17;10.30;;;8.70;99.90;;;;;;4971555;28;20082;-82
2023/03/20 07:51:16;;;;;;;20.55;11.38;;;8.70;99.90;;;;;;4953933;28;20398;-82
2023/03/20 07:53:42;;;;;;;20.42;10.23;;;8.70;99.90;;;;;;4970737;28;20508;-82
2023/03/20 07:56:08;;;;;;;18.25;9.77;;;8.80;99.90;;;;;;4970936;28;20046;-81
2023/03/20 07:58:35;;;;;;;18.38;10.25;;;8.80;99.90;;;;;;4954002;28;20053;-81
2023/03/20 08:01:02;;;;;;;20.63;9.95;;;8.80;99.90;;;;;;4971242;28;20092;-81
2023/03/20 08:03:28;;;;;;;19.65;10.90;;;8.80;99.90;;;;;;4971546;28;20049;-81
2023/03/20 08:05:54;;;;;;;20.85;10.85;;;8.90;99.90;;;;;;4969602;28;20042;-82
2023/03/20 08:08:20;;;;;;;23.27;10.25;;;8.90;99.90;;;;;;4971028;28;20549;-82
2023/03/20 08:10:47;;;;;;;18.95;10.70;;;9.00;99.90;;;;;;4954369;28;20046;-82
2023/03/20 08:13:13;;;;;;;26.92;10.95;;;9.10;99.90;;;;;;4940507;28;20069;-82
2023/03/20 08:15:39;;;;;;;19.98;11.30;;;9.20;99.90;;;;;;4967481;28;20495;-82
2023/03/20 08:18:05;;;;;;;21.10;10.35;;;9.20;99.90;;;;;;4967846;28;20082;-81
2023/03/20 08:20:30;;;;;;;21.58;10.88;;;9.30;99.90;;;;;;4966295;28;20043;-82
2023/03/20 08:22:56;;;;;;;19.02;10.70;;;9.20;99.90;;;;;;4967331;28;20039;-82
2023/03/20 08:25:22;;;;;;;21.90;10.75;;;9.20;99.90;;;;;;4967674;28;20039;-82
2023/03/20 08:27:48;;;;;;;23.33;11.20;;;9.10;99.90;;;;;;4950836;28;20418;-82
2023/03/20 08:30:14;;;;;;;19.58;10.43;;;9.00;99.90;;;;;;4951438;28;20573;-82
2023/03/20 08:32:40;;;;;;;20.63;10.68;;;9.00;99.90;;;;;;4970825;28;20042;-83
2023/03/20 08:35:07;;;;;;;24.05;11.27;;;9.00;99.90;;;;;;4968261;28;20066;-81
2023/03/20 08:37:34;;;;;;;25.85;11.43;;;9.00;99.90;;;;;;4970866;28;20461;-82
2023/03/20 08:40:00;;;;;;;21.42;11.15;;;9.00;99.90;;;;;;4954356;28;20410;-81
2023/03/20 08:42:26;;;;;;;20.85;10.77;;;9.00;99.90;;;;;;4970201;28;20047;-81
2023/03/20 08:44:52;;;;;;;20.13;10.48;;;9.00;99.90;;;;;;4970460;28;20514;-81
2023/03/20 08:47:18;;;;;;;21.67;10.63;;;9.00;99.90;;;;;;4954049;28;20100;-82
2023/03/20 08:49:44;;;;;;;22.73;10.52;;;9.10;99.90;;;;;;4969652;28;20058;-82
2023/03/20 08:52:10;;;;;;;21.02;11.40;;;9.10;99.90;;;;;;4969521;28;20047;-82
2023/03/20 08:54:36;;;;;;;20.98;10.70;;;9.10;99.90;;;;;;4954343;28;20080;-81
2023/03/20 08:57:01;;;;;;;22.95;10.85;;;9.20;99.90;;;;;;4970954;28;20050;-82
2023/03/20 08:59:27;;;;;;;25.92;11.13;;;9.30;99.90;;;;;;4970698;28;20050;-82
2023/03/20 09:01:53;;;;;;;22.92;10.10;;;9.40;99.90;;;;;;4969824;28;20050;-81
2023/03/20 09:04:19;;;;;;;21.73;10.63;;;9.50;99.90;;;;;;4970311;28;20042;-82
2023/03/20 09:06:44;;;;;;;23.55;10.50;;;9.60;99.90;;;;;;4969581;28;20054;-82
2023/03/20 09:09:14;;;;;;;18.73;11.15;;;9.60;99.90;;;;;;4970794;28;20073;-83
2023/03/20 09:11:40;;;;;;;18.45;11.05;;;9.70;99.90;;;;;;4972463;28;20140;-82
2023/03/20 09:14:06;;;;;;;21.67;10.90;;;9.70;99.90;;;;;;4954898;28;20051;-82
2023/03/20 09:16:32;;;;;;;20.52;10.70;;;9.80;99.90;;;;;;4969868;28;20089;-81
2023/03/20 09:18:58;;;;;;;18.55;9.68;;;9.90;99.90;;;;;;4967190;28;20467;-81
2023/03/20 09:21:24;;;;;;;16.20;9.60;;;10.10;99.90;;;;;;4972335;28;20498;-82
2023/03/20 09:23:50;;;;;;;16.90;9.93;;;10.20;99.90;;;;;;4955361;28;20084;-81
2023/03/20 09:26:15;;;;;;;20.20;9.13;;;10.20;99.90;;;;;;4972589;28;20053;-81
2023/03/20 09:28:41;;;;;;;17.88;9.32;;;10.30;99.90;;;;;;4955982;28;20042;-82
2023/03/20 09:31:07;;;;;;;18.77;9.80;;;10.30;99.90;;;;;;4955982;28;20115;-82
2023/03/20 09:33:32;;;;;;;25.70;9.70;;;10.30;99.90;;;;;;4959179;28;20043;-81
2023/03/20 09:35:58;;;;;;;18.85;9.38;;;10.40;99.90;;;;;;4954326;28;20054;-82
2023/03/20 09:38:24;;;;;;;19.48;9.18;;;10.50;99.90;;;;;;4970069;28;20042;-81
2023/03/20 09:40:57;;;;;;;24.17;9.63;;;10.50;99.90;;;;;;4970494;28;20038;-80
2023/03/20 09:43:45;;;;;;;20.38;9.05;;;10.50;99.90;;;;;;4970582;28;20046;-81
2023/03/20 09:46:32;;;;;;;16.27;8.80;;;10.50;99.90;;;;;;4967977;28;20084;-81
2023/03/20 09:49:32;;;;;;;19.75;8.77;;;10.50;99.90;;;;;;4967379;28;20103;-80
2023/03/20 09:52:02;;;;;;;21.52;9.18;;;10.60;99.90;;;;;;4954275;28;20053;-81
2023/03/20 09:54:39;;;;;;;19.35;7.90;;;10.80;99.90;;;;;;4954367;28;20067;-81
2023/03/20 09:57:14;;;;;;;20.88;9.27;;;10.80;99.90;;;;;;4953447;28;20518;-81
2023/03/20 09:59:40;;;;;;;20.25;8.52;;;10.80;99.90;;;;;;4936939;28;20047;-80
2023/03/20 10:02:18;;;;;;;18.15;8.63;;;10.80;99.90;;;;;;4937898;28;20074;-81
2023/03/20 10:04:47;;;;;;;19.33;9.30;;;10.80;99.90;;;;;;4937499;28;20042;-81
2023/03/20 10:07:16;;;;;;;17.83;9.27;;;10.80;99.90;;;;;;4936777;28;20054;-81
2023/03/20 10:09:44;;;;;;;17.63;8.85;;;10.90;99.90;;;;;;4938206;28;20054;-81
2023/03/20 10:12:21;;;;;;;16.80;9.23;;;10.90;99.90;;;;;;4936965;28;20513;-81
2023/03/20 10:15:17;;;;;;;17.33;8.88;;;11.00;99.90;;;;;;4971053;28;20054;-81
2023/03/20 10:17:55;;;;;;;16.02;8.73;;;11.10;99.90;;;;;;4953646;28;20047;-83
2023/03/20 10:20:30;;;;;;;22.05;8.63;;;11.10;99.90;;;;;;4935708;28;20146;-82
2023/03/20 10:23:02;;;;;;;19.75;9.10;;;11.00;99.90;;;;;;4938189;28;20053;-81
2023/03/20 10:25:31;;;;;;;30.83;8.85;;;11.00;99.90;;;;;;4953586;28;20070;-82
2023/03/20 10:27:57;;;;;;;18.30;9.10;;;11.00;99.90;;;;;;4937496;28;20051;-82
2023/03/20 10:30:24;;;;;;;21.08;8.10;;;11.00;99.90;;;;;;4953192;28;20105;-82
2023/03/20 10:32:57;;;;;;;20.65;8.75;;;11.00;99.90;;;;;;4953399;28;20656;-82
2023/03/20 10:35:30;;;;;;;;;;;11.10;99.90;;;;;;4936585;28;20089;-81
2023/03/20 10:38:08;;;;;;;16.98;8.30;;;11.00;99.90;;;;;;4953120;28;20389;-82
2023/03/20 10:40:38;;;;;;;22.92;8.88;;;11.00;99.90;;;;;;4936736;28;20065;-82
2023/03/20 10:43:14;;;;;;;21.30;8.82;;;10.90;99.90;;;;;;4937239;28;20494;-82
2023/03/20 10:45:45;;;;;;;26.05;9.65;;;10.80;99.90;;;;;;4936487;28;20082;-82
2023/03/20 10:48:22;;;;;;;21.83;8.38;;;10.70;99.90;;;;;;4953037;28;20046;-82
2023/03/20 10:50:52;;;;;;;18.15;8.45;;;10.70;99.90;;;;;;4936184;28;20078;-82
2023/03/20 10:53:28;;;;;;;19.95;8.20;;;10.80;99.90;;;;;;4948464;28;20047;-82
2023/03/20 10:55:57;;;;;;;22.75;7.63;;;10.80;99.90;;;;;;4951930;28;20051;-82
2023/03/20 10:58:27;;;;;;;23.75;8.00;;;10.90;99.90;;;;;;4953059;28;20055;-81
2023/03/20 11:00:55;;;;;;;12.80;6.72;;;11.00;99.90;;;;;;4952320;28;20105;-81
2023/03/20 11:03:23;;;;;;;20.25;7.50;;;11.10;99.90;;;;;;4936228;28;20569;-82
2023/03/20 11:05:56;;;;;;;20.67;7.65;;;11.10;99.90;;;;;;4935677;28;20093;-83
2023/03/20 11:08:23;;;;;;;;;;;11.20;99.90;;;;;;4952680;28;20260;-82
2023/03/20 11:10:58;;;;;;;20.98;7.22;;;11.10;99.90;;;;;;4936280;28;20338;-83
2023/03/20 11:13:36;;;;;;;16.77;6.55;;;11.10;99.90;;;;;;4936806;28;20154;-83
2023/03/20 11:16:21;;;;;;;13.40;6.28;;;11.10;99.90;;;;;;4952401;28;20050;-85
2023/03/20 11:18:48;;;;;;;21.48;7.53;;;11.00;99.90;;;;;;4953557;28;20376;-86
2023/03/20 11:21:19;;;;;;;11.90;6.18;;;10.90;99.90;;;;;;4936054;28;20047;-83
2023/03/20 11:23:45;;;;;;;21.75;6.95;;;10.90;99.90;;;;;;4936439;28;20062;-83
2023/03/20 11:26:15;;;;;;;18.63;6.80;;;10.80;99.90;;;;;;4936339;28;20410;-84
2023/03/20 11:28:50;;;;;;;19.30;6.85;;;10.70;99.90;;;;;;4937533;28;20100;-84
2023/03/20 11:31:19;;;;;;;15.32;6.55;;;10.50;99.90;;;;;;4936569;28;20442;-83
2023/03/20 11:33:59;;;;;;;17.73;7.00;;;10.40;99.90;;;;;;4951755;28;20043;-83
2023/03/20 11:36:28;;;;;;;22.02;7.65;;;10.30;99.90;;;;;;4935615;28;20050;-84
2023/03/20 11:39:04;;;;;;;18.67;6.93;;;10.20;99.90;;;;;;4937139;28;20046;-86
2023/03/20 11:41:30;;;;;;;18.73;7.28;;;10.10;99.90;;;;;;4936201;28;20089;-83
2023/03/20 11:43:56;;;;;;;14.35;6.35;;;10.20;99.90;;;;;;4935696;28;20578;-84
2023/03/20 11:46:23;;;;;;;17.30;6.68;;;10.10;99.90;;;;;;4951470;28;20529;-82
2023/03/20 11:49:05;;;;;;;21.45;7.57;;;10.10;99.90;;;;;;4952168;28;20078;-82
2023/03/20 11:51:34;;;;;;;14.00;6.68;;;10.00;99.90;;;;;;4935664;28;20049;-82
2023/03/20 11:54:04;;;;;;;20.95;7.40;;;9.90;99.90;;;;;;4955585;28;20049;-83
2023/03/20 11:56:32;;;;;;;15.20;6.18;;;10.00;99.90;;;;;;4971605;28;20042;-83
2023/03/20 11:59:08;;;;;;;13.02;5.32;;;10.10;99.90;;;;;;4970472;28;20045;-82
2023/03/20 12:01:45;;;;;;;14.57;5.45;;;10.20;99.90;;;;;;4955221;28;20053;-82
2023/03/20 12:04:15;;;;;;;14.43;5.45;;;10.30;99.90;;;;;;4955044;28;20141;-82
2023/03/20 12:06:58;;;;;;;17.23;6.43;;;10.20;99.90;;;;;;4953087;28;20042;-82
2023/03/20 12:09:24;;;;;;;;;;;10.10;99.90;;;;;;4955886;28;20047;-82
2023/03/20 12:11:56;;;;;;;14.98;5.45;;;10.10;99.90;;;;;;4954540;28;20096;-83
2023/03/20 12:14:25;;;;;;;14.82;5.45;;;10.00;99.90;;;;;;4955414;28;20133;-83
2023/03/20 12:17:02;;;;;;;12.48;4.75;;;9.90;99.90;;;;;;4955317;28;20054;-83
2023/03/20 12:19:31;;;;;;;14.85;5.13;;;9.90;99.90;;;;;;4954857;28;20445;-82
2023/03/20 12:22:20;;;;;;;13.93;4.90;;;9.90;99.90;;;;;;4954666;28;20101;-83
2023/03/20 12:24:55;;;;;;;9.68;3.65;;;9.80;99.90;;;;;;4971465;28;20397;-82
2023/03/20 12:27:26;;;;;;;10.80;3.70;;;9.80;99.90;;;;;;4954182;28;20043;-83
2023/03/20 12:30:10;;;;;;;10.90;3.60;;;9.70;99.90;;;;;;4955023;28;20057;-83
2023/03/20 12:32:43;;;;;;;9.75;4.10;;;9.80;99.90;;;;;;4970755;28;20525;-83
2023/03/20 12:35:19;;;;;;;10.13;4.60;;;9.80;99.90;;;;;;4969758;28;20042;-83
2023/03/20 12:37:45;;;;;;;10.02;4.13;;;9.80;99.90;;;;;;4970564;28;20049;-83
2023/03/20 12:40:16;;;;;;;12.18;3.97;;;9.80;99.90;;;;;;4953916;28;20042;-82
2023/03/20 12:42:54;;;;;;;10.77;3.40;;;9.80;99.90;;;;;;4954430;28;20495;-83
2023/03/20 12:45:24;;;;;;;7.40;2.85;;;9.90;99.90;;;;;;4957126;28;20596;-82
2023/03/20 12:48:02;;;;;;;10.82;2.95;;;9.80;99.90;;;;;;4974082;28;20522;-82
2023/03/20 12:50:36;;;;;;;7.90;2.45;;;9.70;99.90;;;;;;4958072;28;20089;-83
2023/03/20 12:53:12;;;;;;;9.10;2.47;;;9.70;99.90;;;;;;4945310;28;20451;-84
2023/03/20 12:55:47;;;;;;;11.00;2.70;;;9.60;99.90;;;;;;4954320;28;20290;-83